Time;durP1;ratioP1;P1;durP2;ratioP2;P2;SDS_P1;SDS_P2;PMS_P1;PMS_P2;Temp;Humidity;BMP_temperature;BMP_pressure;BME280_temperature;BME280_humidity;BME280_pressure;Samples;Min_cycle;Max_cycle;Signal;HPM_P1;HPM_P2
2023/10/01 00:00:00;;;;;;;16.75;8.02;;;11.50;99.90;;;;;;4881919;29;20064;-68
2023/10/01 00:02:32;;;;;;;14.60;7.93;;;11.40;99.90;;;;;;4881936;29;20056;-68
2023/10/01 00:05:05;;;;;;;19.25;9.60;;;11.40;99.90;;;;;;4874088;29;20512;-68
2023/10/01 00:07:37;;;;;;;20.10;9.82;;;11.40;99.90;;;;;;4884416;29;20453;-68
2023/10/01 00:10:13;;;;;;;18.17;8.70;;;11.50;99.90;;;;;;4887892;29;20130;-68
2023/10/01 00:12:47;;;;;;;15.90;8.38;;;11.50;99.90;;;;;;4886749;29;20045;-68
2023/10/01 00:15:21;;;;;;;14.48;8.57;;;11.50;99.90;;;;;;4872650;29;20040;-68
2023/10/01 00:17:53;;;;;;;16.88;8.38;;;11.40;99.90;;;;;;4877120;29;20132;-68
2023/10/01 00:20:27;;;;;;;21.15;9.90;;;11.40;99.90;;;;;;4865229;29;20041;-68
2023/10/01 00:23:02;;;;;;;18.50;9.68;;;11.40;99.90;;;;;;4877435;29;20054;-68
2023/10/01 00:25:35;;;;;;;19.30;9.27;;;11.30;99.90;;;;;;4878718;29;20535;-68
2023/10/01 00:28:04;;;;;;;18.80;9.30;;;11.30;99.90;;;;;;4894529;29;20053;-67
2023/10/01 00:30:36;;;;;;;17.77;11.05;;;11.20;99.90;;;;;;4876474;29;20045;-68
2023/10/01 00:33:11;;;;;;;19.65;10.98;;;11.20;99.90;;;;;;4881436;29;20136;-68
2023/10/01 00:35:43;;;;;;;21.67;9.05;;;11.20;99.90;;;;;;4889242;29;20053;-68
2023/10/01 00:38:11;;;;;;;16.40;8.50;;;11.10;99.90;;;;;;4886904;29;20055;-69
2023/10/01 00:40:43;;;;;;;15.98;7.90;;;11.10;99.90;;;;;;4885759;29;20041;-69
2023/10/01 00:43:11;;;;;;;17.05;7.97;;;11.10;99.90;;;;;;4886315;29;20119;-67
2023/10/01 00:45:42;;;;;;;18.60;8.88;;;11.00;99.90;;;;;;4866971;29;20055;-70
2023/10/01 00:48:15;;;;;;;15.73;8.40;;;11.00;99.90;;;;;;4884607;29;20064;-68
2023/10/01 00:50:42;;;;;;;13.00;7.50;;;11.10;99.90;;;;;;4880060;29;20140;-67
2023/10/01 00:53:14;;;;;;;17.17;8.23;;;11.10;99.90;;;;;;4862200;29;20056;-67
2023/10/01 00:55:48;;;;;;;15.27;8.55;;;11.00;99.90;;;;;;4879403;29;20053;-68
2023/10/01 00:58:21;;;;;;;14.20;8.25;;;11.00;99.90;;;;;;4864410;29;20055;-68
2023/10/01 01:00:53;;;;;;;14.43;7.50;;;11.00;99.90;;;;;;4857099;29;20139;-68
2023/10/01 01:03:25;;;;;;;17.05;10.05;;;10.90;99.90;;;;;;4870189;29;20053;-68
2023/10/01 01:05:57;;;;;;;16.02;8.35;;;10.90;99.90;;;;;;4868629;29;20052;-70
2023/10/01 01:08:46;;;;;;;15.77;8.68;;;10.90;99.90;;;;;;4873127;29;20037;-67
2023/10/01 01:11:19;;;;;;;18.48;8.65;;;10.90;99.90;;;;;;4873850;29;20076;-68
2023/10/01 01:13:47;;;;;;;16.75;8.18;;;10.90;99.90;;;;;;4864991;29;20053;-67
2023/10/01 01:16:21;;;;;;;13.95;8.35;;;10.80;99.90;;;;;;4863271;29;20675;-69
2023/10/01 01:18:54;;;;;;;16.92;8.07;;;10.80;99.90;;;;;;4879383;29;20052;-68
2023/10/01 01:21:26;;;;;;;16.67;8.57;;;10.80;99.90;;;;;;4867071;29;20049;-68
2023/10/01 01:23:58;;;;;;;15.77;8.02;;;10.80;99.90;;;;;;4879484;29;20044;-68
2023/10/01 01:26:31;;;;;;;16.42;8.50;;;10.80;99.90;;;;;;4872155;29;20053;-69
2023/10/01 01:29:17;;;;;;;15.30;7.53;;;10.80;99.90;;;;;;4879810;29;20398;-67
2023/10/01 01:32:05;;;;;;;17.02;8.50;;;10.80;99.90;;;;;;4881143;29;20060;-68
2023/10/01 01:34:40;;;;;;;13.88;8.20;;;10.80;99.90;;;;;;4864342;29;20056;-68
2023/10/01 01:37:36;;;;;;;;;;;10.70;99.90;;;;;;4875071;29;20518;-70
2023/10/01 01:40:13;;;;;;;13.85;7.22;;;10.70;99.90;;;;;;4871265;29;19924;-68
2023/10/01 01:42:45;;;;;;;16.50;8.63;;;10.70;99.90;;;;;;4871503;29;20051;-68
2023/10/01 01:45:25;;;;;;;14.25;8.20;;;10.70;99.90;;;;;;4873180;29;20041;-68
2023/10/01 01:47:57;;;;;;;22.95;9.70;;;10.70;99.90;;;;;;4886982;29;20051;-68
2023/10/01 01:50:31;;;;;;;19.42;9.48;;;10.70;99.90;;;;;;4875218;29;20044;-67
2023/10/01 01:53:03;;;;;;;17.42;9.45;;;10.70;99.90;;;;;;4865200;29;20041;-67
2023/10/01 01:55:35;;;;;;;18.27;9.45;;;10.70;99.90;;;;;;4878944;29;20048;-69
2023/10/01 01:58:10;;;;;;;17.05;9.48;;;10.70;99.90;;;;;;4878581;29;20413;-69
2023/10/01 02:01:01;;;;;;;14.95;8.27;;;10.70;99.90;;;;;;4886640;29;20060;-68
2023/10/01 02:03:33;;;;;;;17.88;10.07;;;10.70;99.90;;;;;;4878499;29;20075;-68
2023/10/01 02:06:01;;;;;;;14.50;8.73;;;10.70;99.90;;;;;;4876868;29;20040;-69
2023/10/01 02:11:20;;;;;;;17.17;9.60;;;10.70;99.90;;;;;;4890475;29;20080;-67
2023/10/01 02:13:57;;;;;;;16.50;9.15;;;10.70;99.90;;;;;;4871570;29;20055;-70
2023/10/01 02:16:35;;;;;;;14.13;8.00;;;10.60;99.90;;;;;;4871856;29;20486;-68
2023/10/01 02:19:11;;;;;;;15.40;8.55;;;10.60;99.90;;;;;;4889508;29;20107;-67
2023/10/01 02:21:49;;;;;;;17.85;8.65;;;10.60;99.90;;;;;;4884745;29;20072;-68
2023/10/01 02:24:23;;;;;;;14.93;8.27;;;10.60;99.90;;;;;;4877839;29;20045;-68
2023/10/01 02:27:04;;;;;;;14.02;8.45;;;10.60;99.90;;;;;;4882812;29;20049;-67
2023/10/01 02:29:45;;;;;;;15.65;8.50;;;10.50;99.90;;;;;;4862586;29;20063;-69
2023/10/01 02:32:17;;;;;;;16.73;8.38;;;10.50;99.90;;;;;;4880983;29;20049;-67
2023/10/01 02:34:49;;;;;;;16.42;8.50;;;10.50;99.90;;;;;;4890042;29;20063;-68
2023/10/01 02:37:29;;;;;;;18.17;9.93;;;10.40;99.90;;;;;;4866142;29;20049;-69
2023/10/01 02:40:12;;;;;;;15.85;9.23;;;10.30;99.90;;;;;;4867778;29;20057;-68
2023/10/01 02:42:49;;;;;;;13.70;7.85;;;10.30;99.90;;;;;;4877601;29;20048;-68
2023/10/01 02:45:30;;;;;;;14.50;8.85;;;10.20;99.90;;;;;;4870964;29;20053;-67
2023/10/01 02:48:18;;;;;;;15.45;8.95;;;10.20;99.90;;;;;;4888812;29;20530;-67
2023/10/01 02:50:53;;;;;;;14.48;7.75;;;10.10;99.90;;;;;;4863949;29;20037;-69
2023/10/01 02:53:25;;;;;;;17.92;8.13;;;10.10;99.90;;;;;;4865792;29;20105;-67
2023/10/01 02:55:52;;;;;;;12.93;7.70;;;10.10;99.90;;;;;;4880547;29;20124;-68
2023/10/01 02:58:27;;;;;;;13.32;7.72;;;10.10;99.90;;;;;;4879673;29;20520;-68
2023/10/01 03:01:05;;;;;;;14.25;7.70;;;10.10;99.90;;;;;;4864467;29;20818;-67
2023/10/01 03:03:32;;;;;;;12.57;6.88;;;10.20;99.90;;;;;;4878456;29;20044;-67
2023/10/01 03:06:08;;;;;;;15.05;8.05;;;10.20;99.90;;;;;;4864562;29;20080;-68
2023/10/01 03:11:22;;;;;;;15.45;7.60;;;10.10;99.90;;;;;;4889820;29;20084;-68
2023/10/01 03:14:03;;;;;;;16.58;9.00;;;10.10;99.90;;;;;;4871812;29;20056;-68
2023/10/01 03:16:42;;;;;;;16.05;8.57;;;10.10;99.90;;;;;;4877854;29;20087;-66
2023/10/01 03:19:25;;;;;;;16.75;7.20;;;10.10;99.90;;;;;;4882616;29;20052;-68
2023/10/01 03:24:41;;;;;;;15.38;8.50;;;10.10;99.90;;;;;;4882665;29;20041;-67
2023/10/01 03:27:20;;;;;;;15.60;6.63;;;10.10;99.90;;;;;;4883625;29;20049;-68
2023/10/01 03:29:49;;;;;;;12.52;7.25;;;10.10;99.90;;;;;;4864041;29;20048;-67
2023/10/01 03:32:27;;;;;;;;;;;10.10;99.90;;;;;;4878951;29;20048;-68
2023/10/01 03:35:06;;;;;;;12.15;6.40;;;10.10;99.90;;;;;;4888310;29;20576;-68
2023/10/01 03:37:38;;;;;;;13.55;7.85;;;10.10;99.90;;;;;;4880991;29;20075;-68
2023/10/01 03:40:18;;;;;;;13.90;7.22;;;10.10;99.90;;;;;;4869534;29;20061;-68
2023/10/01 03:42:51;;;;;;;15.65;7.50;;;10.10;99.90;;;;;;4883111;29;20119;-67
2023/10/01 03:45:54;;;;;;;14.43;7.60;;;10.00;99.90;;;;;;4888374;29;20088;-67
2023/10/01 03:48:19;;;;;;;14.93;7.25;;;10.00;99.90;;;;;;4886509;29;20051;-68
2023/10/01 03:50:51;;;;;;;16.38;9.00;;;10.00;99.90;;;;;;4873253;29;20040;-68
2023/10/01 03:53:23;;;;;;;16.45;9.70;;;10.00;99.90;;;;;;4871375;29;20053;-68
2023/10/01 03:55:55;;;;;;;21.02;9.85;;;10.00;99.90;;;;;;4881886;29;20061;-68
2023/10/01 03:58:26;;;;;;;21.70;10.55;;;10.00;99.90;;;;;;4879048;29;20055;-69
2023/10/01 04:00:53;;;;;;;21.77;10.90;;;10.00;99.90;;;;;;4865930;29;20071;-68
2023/10/01 04:03:36;;;;;;;16.55;8.85;;;10.00;99.90;;;;;;4868408;29;20060;-67
2023/10/01 04:06:06;;;;;;;13.40;7.53;;;10.00;99.90;;;;;;4884304;29;20045;-67
2023/10/01 04:08:44;;;;;;;14.93;7.95;;;10.00;99.90;;;;;;4881262;29;20393;-68
2023/10/01 04:11:16;;;;;;;13.02;7.53;;;10.00;99.90;;;;;;4884267;29;20056;-70
2023/10/01 04:13:43;;;;;;;14.65;7.93;;;9.90;99.90;;;;;;4893414;29;20040;-69
2023/10/01 04:16:24;;;;;;;15.13;7.25;;;9.90;99.90;;;;;;4891359;29;20522;-69
2023/10/01 04:18:59;;;;;;;14.65;8.25;;;9.90;99.90;;;;;;4894068;29;20060;-70
2023/10/01 04:21:28;;;;;;;15.75;8.75;;;9.90;99.90;;;;;;4893399;29;20073;-68
2023/10/01 04:23:55;;;;;;;14.65;8.57;;;9.90;99.90;;;;;;4878469;29;20048;-67
2023/10/01 04:26:22;;;;;;;12.65;6.82;;;9.90;99.90;;;;;;4894275;29;20057;-67
2023/10/01 04:28:54;;;;;;;17.58;7.22;;;9.90;99.90;;;;;;4888602;29;20426;-68
2023/10/01 04:34:20;;;;;;;13.52;7.68;;;9.90;99.90;;;;;;4891928;29;20114;-68
2023/10/01 04:36:53;;;;;;;16.10;8.25;;;9.90;99.90;;;;;;4877290;29;20044;-68
2023/10/01 04:39:25;;;;;;;;;;;9.80;99.90;;;;;;4891341;29;20061;-69
2023/10/01 04:41:59;;;;;;;13.18;6.95;;;9.80;99.90;;;;;;4870168;29;19931;-68
2023/10/01 04:44:35;;;;;;;15.23;6.75;;;9.80;99.90;;;;;;4891908;29;20051;-68
2023/10/01 04:47:30;;;;;;;12.48;7.68;;;9.80;99.90;;;;;;4886533;29;20053;-68
2023/10/01 04:49:56;;;;;;;16.00;7.43;;;9.80;99.90;;;;;;4888526;29;20135;-69
2023/10/01 04:52:31;;;;;;;15.55;7.82;;;9.80;99.90;;;;;;4890664;29;20064;-68
2023/10/01 04:55:08;;;;;;;15.35;8.95;;;9.80;99.90;;;;;;4870036;29;20449;-68
2023/10/01 04:57:36;;;;;;;16.85;9.02;;;9.70;99.90;;;;;;4875621;29;20096;-69
2023/10/01 05:00:10;;;;;;;14.45;7.72;;;9.70;99.90;;;;;;4884477;29;20132;-68
2023/10/01 05:02:46;;;;;;;13.43;7.72;;;9.70;99.90;;;;;;4882477;29;20055;-69
2023/10/01 05:05:16;;;;;;;16.15;8.20;;;9.70;99.90;;;;;;4879756;29;20506;-68
2023/10/01 05:07:50;;;;;;;12.45;7.18;;;9.60;99.90;;;;;;4878607;29;20036;-67
2023/10/01 05:10:22;;;;;;;12.88;7.60;;;9.60;99.90;;;;;;4885497;29;20151;-68
2023/10/01 05:13:02;;;;;;;15.03;8.33;;;9.60;99.90;;;;;;4870620;29;20057;-68
2023/10/01 05:15:37;;;;;;;14.20;8.20;;;9.60;99.90;;;;;;4880297;29;20055;-68
2023/10/01 05:18:09;;;;;;;16.38;7.95;;;9.60;99.90;;;;;;4886561;29;20060;-68
2023/10/01 05:20:41;;;;;;;14.93;8.32;;;9.60;99.90;;;;;;4871412;29;20417;-68
2023/10/01 05:23:14;;;;;;;13.43;7.70;;;9.60;99.90;;;;;;4855452;29;20136;-68
2023/10/01 05:25:46;;;;;;;14.88;7.68;;;9.60;99.90;;;;;;4870603;29;20041;-68
2023/10/01 05:28:31;;;;;;;12.60;6.85;;;9.60;99.90;;;;;;4890560;29;20047;-70
2023/10/01 05:30:59;;;;;;;14.88;7.57;;;9.60;99.90;;;;;;4882784;29;20064;-67
2023/10/01 05:33:34;;;;;;;14.55;7.03;;;9.60;99.90;;;;;;4889775;29;20429;-68
2023/10/01 05:36:08;;;;;;;13.40;6.97;;;9.60;99.90;;;;;;4880528;29;20053;-68
2023/10/01 05:38:36;;;;;;;12.90;7.47;;;9.60;99.90;;;;;;4884844;29;20505;-68
2023/10/01 05:41:09;;;;;;;15.90;7.38;;;9.60;99.90;;;;;;4868032;29;20501;-67
2023/10/01 05:43:50;;;;;;;21.67;8.50;;;9.60;99.90;;;;;;4897880;29;20048;-69
2023/10/01 05:46:27;;;;;;;19.25;8.77;;;9.60;99.90;;;;;;4893705;29;20060;-67
2023/10/01 05:49:00;;;;;;;21.67;9.45;;;9.60;99.90;;;;;;4871061;29;20478;-68
2023/10/01 05:51:43;;;;;;;17.13;8.90;;;9.60;99.90;;;;;;4875204;29;20055;-68
2023/10/01 05:54:18;;;;;;;16.15;7.43;;;9.60;99.90;;;;;;4891003;29;20064;-68
2023/10/01 05:56:48;;;;;;;11.25;7.40;;;9.60;99.90;;;;;;4887572;29;20051;-68
2023/10/01 05:59:22;;;;;;;14.25;7.57;;;9.60;99.90;;;;;;4881655;29;20466;-67
2023/10/01 06:01:54;;;;;;;15.05;7.53;;;9.60;99.90;;;;;;4876078;29;20052;-68
2023/10/01 06:04:26;;;;;;;14.85;7.32;;;9.60;99.90;;;;;;4887808;29;20036;-69
2023/10/01 06:07:02;;;;;;;13.35;7.63;;;9.60;99.90;;;;;;4894507;29;20056;-68
2023/10/01 06:09:33;;;;;;;14.30;7.00;;;9.70;99.90;;;;;;4898402;29;20102;-68
2023/10/01 06:12:04;;;;;;;15.63;7.60;;;9.70;99.90;;;;;;4883016;29;20144;-68
2023/10/01 06:14:39;;;;;;;16.17;8.88;;;9.70;99.90;;;;;;4873301;29;20053;-69
2023/10/01 06:17:10;;;;;;;23.65;10.35;;;9.70;99.90;;;;;;4861372;29;20052;-67
2023/10/01 06:19:43;;;;;;;20.70;9.68;;;9.80;99.90;;;;;;4865892;29;20045;-68
2023/10/01 06:22:25;;;;;;;18.70;8.95;;;9.90;99.90;;;;;;4894111;29;20045;-67
2023/10/01 06:24:52;;;;;;;20.00;9.73;;;10.00;99.90;;;;;;4886269;29;20494;-68
2023/10/01 06:27:25;;;;;;;26.75;11.77;;;10.10;99.90;;;;;;4879714;29;20045;-68
2023/10/01 06:30:00;;;;;;;28.77;10.90;;;10.20;99.90;;;;;;4885839;29;20067;-67
2023/10/01 06:32:27;;;;;;;38.50;18.27;;;10.20;99.90;;;;;;4882437;29;20140;-67
2023/10/01 06:35:02;;;;;;;22.67;11.93;;;10.20;99.90;;;;;;4881203;29;20093;-67
2023/10/01 06:37:45;;;;;;;29.60;16.25;;;10.10;99.90;;;;;;4879323;29;20091;-68
2023/10/01 06:40:29;;;;;;;19.40;10.50;;;10.10;99.90;;;;;;4866633;29;20048;-68
2023/10/01 06:43:02;;;;;;;48.10;23.05;;;10.00;99.90;;;;;;4894754;29;20068;-67
2023/10/01 06:45:39;;;;;;;20.55;12.07;;;10.00;99.90;;;;;;4881497;29;20132;-68
2023/10/01 06:48:14;;;;;;;47.22;23.33;;;10.00;99.90;;;;;;4884040;29;20139;-67
2023/10/01 06:50:44;;;;;;;17.40;9.95;;;10.00;99.90;;;;;;4889775;29;20076;-67
2023/10/01 06:53:16;;;;;;;43.08;19.98;;;10.00;99.90;;;;;;4871220;29;20060;-67
2023/10/01 06:55:47;;;;;;;51.80;22.77;;;10.00;99.90;;;;;;4871913;29;20060;-67
2023/10/01 06:58:20;;;;;;;30.70;14.93;;;10.00;99.90;;;;;;4872732;29;20431;-67
2023/10/01 07:00:52;;;;;;;20.70;9.10;;;10.10;99.90;;;;;;4867778;29;20109;-68
2023/10/01 07:03:22;;;;;;;15.48;8.60;;;10.20;99.90;;;;;;4888463;29;20052;-68
2023/10/01 07:05:56;;;;;;;12.55;7.85;;;10.30;99.90;;;;;;4889889;29;20037;-68
2023/10/01 07:08:37;;;;;;;11.23;7.18;;;10.30;99.90;;;;;;4877708;29;20045;-68
2023/10/01 07:11:11;;;;;;;11.98;7.65;;;10.40;99.90;;;;;;4865552;29;20089;-67
2023/10/01 07:13:43;;;;;;;15.38;8.40;;;10.60;99.90;;;;;;4881809;29;20516;-68
2023/10/01 07:16:35;;;;;;;12.55;7.40;;;10.70;99.90;;;;;;4859937;29;20148;-68
2023/10/01 07:19:13;;;;;;;12.18;7.30;;;10.90;99.90;;;;;;4883854;29;20041;-66
2023/10/01 07:21:45;;;;;;;12.97;8.33;;;11.20;99.90;;;;;;4888899;29;20059;-67
2023/10/01 07:24:20;;;;;;;15.07;7.68;;;11.50;99.90;;;;;;4887526;29;20052;-68
2023/10/01 07:27:03;;;;;;;13.38;8.13;;;11.90;99.90;;;;;;4886237;29;20073;-67
2023/10/01 07:29:39;;;;;;;15.30;8.43;;;12.10;99.90;;;;;;4868758;29;20059;-67
2023/10/01 07:32:12;;;;;;;12.48;7.35;;;12.20;99.90;;;;;;4889214;29;20520;-68
2023/10/01 07:34:48;;;;;;;21.15;10.43;;;12.40;99.90;;;;;;4882546;29;20160;-68
2023/10/01 07:37:25;;;;;;;34.42;14.68;;;12.60;99.90;;;;;;4880921;29;20045;-68
2023/10/01 07:39:55;;;;;;;38.17;16.15;;;12.80;99.90;;;;;;4886017;29;20045;-68
2023/10/01 07:42:27;;;;;;;37.38;17.67;;;13.00;99.90;;;;;;4890573;29;20049;-67
2023/10/01 07:45:00;;;;;;;30.20;14.57;;;13.20;99.90;;;;;;4883439;29;20120;-68
2023/10/01 07:47:32;;;;;;;22.43;11.17;;;13.40;99.90;;;;;;4876980;29;20413;-70
2023/10/01 07:50:12;;;;;;;17.33;9.88;;;13.50;99.90;;;;;;4883894;29;20702;-68
2023/10/01 07:52:44;;;;;;;16.90;9.88;;;13.60;99.90;;;;;;4874342;29;20585;-68
2023/10/01 07:55:29;;;;;;;14.52;9.35;;;13.70;99.90;;;;;;4888442;29;20072;-67
2023/10/01 08:01:36;;;;;;;17.52;9.02;;;13.60;99.90;;;;;;4886616;29;20152;-67
2023/10/01 08:03:56;;;;;;;18.55;9.10;;;13.50;99.90;;;;;;4892844;29;20068;-69
2023/10/01 08:06:31;;;;;;;15.80;9.63;;;13.40;99.90;;;;;;4881606;29;20048;-67
2023/10/01 08:09:08;;;;;;;18.42;9.45;;;13.40;99.90;;;;;;4869367;29;20498;-67
2023/10/01 08:11:58;;;;;;;20.17;9.48;;;13.50;99.90;;;;;;4861182;29;20087;-69
2023/10/01 08:14:33;;;;;;;18.30;10.02;;;13.50;99.90;;;;;;4888590;29;20072;-67
2023/10/01 08:17:05;;;;;;;17.92;10.30;;;13.60;99.90;;;;;;4875170;29;20541;-67
2023/10/01 08:19:49;;;;;;;17.15;10.52;;;13.60;99.90;;;;;;4890766;29;20041;-66
2023/10/01 08:22:23;;;;;;;19.33;10.73;;;13.70;99.90;;;;;;4892041;29;20055;-66
2023/10/01 08:24:55;;;;;;;19.20;11.05;;;13.80;99.90;;;;;;4881067;29;20413;-66
2023/10/01 08:27:31;;;;;;;20.08;11.15;;;13.90;99.90;;;;;;4880916;29;20060;-67
2023/10/01 08:30:16;;;;;;;18.75;9.77;;;14.00;99.90;;;;;;4875668;29;20226;-67
2023/10/01 08:33:03;;;;;;;18.63;10.45;;;14.10;99.90;;;;;;4878289;29;20053;-68
2023/10/01 08:35:56;;;;;;;17.08;10.98;;;14.20;99.90;;;;;;4885710;29;20047;-70
2023/10/01 08:38:24;;;;;;;20.08;10.43;;;14.30;99.90;;;;;;4890489;29;20037;-67
2023/10/01 08:41:02;;;;;;;20.00;11.43;;;14.40;99.90;;;;;;4875562;29;20040;-69
2023/10/01 08:43:37;;;;;;;19.17;10.65;;;14.60;99.90;;;;;;4878403;29;20041;-69
2023/10/01 08:46:15;;;;;;;23.98;12.13;;;14.70;99.90;;;;;;4877854;29;20048;-68
2023/10/01 08:48:48;;;;;;;19.45;11.05;;;14.80;99.90;;;;;;4889489;29;20741;-68
2023/10/01 08:51:16;;;;;;;20.95;11.65;;;14.90;99.90;;;;;;4893362;29;20040;-68
2023/10/01 08:53:48;;;;;;;;;;;15.00;99.90;;;;;;4879921;29;20090;-68
2023/10/01 08:56:32;;;;;;;25.58;11.75;;;15.10;99.90;;;;;;4892263;29;20426;-67
2023/10/01 08:59:23;;;;;;;25.20;12.07;;;15.20;99.90;;;;;;4888896;29;20087;-67
2023/10/01 09:01:55;;;;;;;24.70;12.65;;;15.30;99.90;;;;;;4872224;29;20643;-68
2023/10/01 09:04:29;;;;;;;28.70;13.48;;;15.40;99.90;;;;;;4890507;29;20577;-67
2023/10/01 09:07:04;;;;;;;19.42;11.32;;;15.50;99.90;;;;;;4872303;29;21011;-70
2023/10/01 09:09:51;;;;;;;23.63;12.40;;;15.70;99.90;;;;;;4875808;29;20055;-68
2023/10/01 09:12:24;;;;;;;19.02;11.05;;;15.80;99.90;;;;;;4889748;29;20533;-69
2023/10/01 09:14:51;;;;;;;22.25;11.05;;;15.90;99.90;;;;;;4896361;29;20463;-68
2023/10/01 09:17:24;;;;;;;21.15;11.60;;;16.00;99.90;;;;;;4886671;29;20048;-68
2023/10/01 09:20:06;;;;;;;24.55;12.30;;;16.10;99.90;;;;;;4884656;29;20048;-68
2023/10/01 09:22:42;;;;;;;23.35;12.50;;;16.20;99.90;;;;;;4894354;29;20047;-69
2023/10/01 09:25:27;;;;;;;22.83;11.57;;;16.30;99.90;;;;;;4891320;29;20041;-69
2023/10/01 09:28:19;;;;;;;22.08;11.48;;;16.40;99.90;;;;;;4882901;29;20067;-67
2023/10/01 09:31:19;;;;;;;21.40;12.23;;;16.60;99.90;;;;;;4887239;29;20626;-68
2023/10/01 09:33:48;;;;;;;20.73;11.48;;;16.70;99.90;;;;;;4882229;29;20620;-68
2023/10/01 09:36:37;;;;;;;;;;;16.90;99.90;;;;;;4894028;29;20517;-67
2023/10/01 09:39:04;;;;;;;22.88;12.13;;;17.00;99.90;;;;;;4891200;29;20022;-67
2023/10/01 09:41:40;;;;;;;22.92;12.60;;;17.10;99.90;;;;;;4892320;29;20051;-67
2023/10/01 09:44:14;;;;;;;22.80;11.00;;;17.20;99.90;;;;;;4875104;29;20062;-68
2023/10/01 09:46:49;;;;;;;21.02;11.32;;;17.30;99.90;;;;;;4886447;29;20395;-68
2023/10/01 09:49:30;;;;;;;22.23;11.50;;;17.40;99.90;;;;;;4893292;29;20115;-67
2023/10/01 09:52:04;;;;;;;22.95;11.15;;;17.50;99.90;;;;;;4900081;29;20048;-69
2023/10/01 09:54:41;;;;;;;21.95;10.52;;;17.60;99.90;;;;;;4897901;29;20500;-67
2023/10/01 09:57:14;;;;;;;22.13;11.20;;;17.70;99.90;;;;;;4896902;29;20044;-69
2023/10/01 09:59:41;;;;;;;23.63;11.18;;;17.80;99.90;;;;;;4878567;29;20715;-68
2023/10/01 10:02:09;;;;;;;20.35;11.30;;;17.90;99.90;;;;;;4878073;29;20132;-67
2023/10/01 10:04:39;;;;;;;22.48;11.65;;;18.00;99.90;;;;;;4898194;29;20055;-68
2023/10/01 10:07:22;;;;;;;19.20;10.27;;;18.10;99.90;;;;;;4889238;29;20047;-67
2023/10/01 10:09:57;;;;;;;20.27;10.95;;;18.20;99.90;;;;;;4889492;29;20128;-67
2023/10/01 10:12:34;;;;;;;21.48;11.43;;;18.30;99.90;;;;;;4885788;29;20117;-67
2023/10/01 10:15:08;;;;;;;21.67;11.23;;;18.40;99.90;;;;;;4890066;29;20045;-67
2023/10/01 10:18:15;;;;;;;18.60;10.70;;;18.50;99.90;;;;;;4887783;29;20041;-67
2023/10/01 10:21:03;;;;;;;20.17;11.25;;;18.60;99.90;;;;;;4887717;29;20041;-67
2023/10/01 10:23:55;;;;;;;21.17;11.15;;;18.70;99.90;;;;;;4884531;29;20418;-67
2023/10/01 10:26:56;;;;;;;22.23;10.63;;;18.80;99.90;;;;;;4887535;29;20048;-69
2023/10/01 10:29:46;;;;;;;21.67;10.70;;;18.90;99.90;;;;;;4888729;29;20052;-68
2023/10/01 10:32:24;;;;;;;20.70;10.00;;;18.90;99.90;;;;;;4888745;29;20117;-67
2023/10/01 10:35:05;;;;;;;19.00;10.07;;;18.90;99.90;;;;;;4880890;29;20044;-68
2023/10/01 10:37:37;;;;;;;18.42;9.70;;;19.00;99.90;;;;;;4884927;29;20394;-68
2023/10/01 10:42:58;;;;;;;19.35;9.60;;;19.20;99.90;;;;;;4879223;29;20597;-67
2023/10/01 10:45:49;;;;;;;19.50;9.10;;;19.30;99.90;;;;;;4865038;29;20137;-68
2023/10/01 10:48:21;;;;;;;17.42;8.90;;;19.40;99.90;;;;;;4894532;29;20056;-67
2023/10/01 10:50:57;;;;;;;20.30;11.00;;;19.50;99.90;;;;;;4890520;29;20047;-68
2023/10/01 10:53:37;;;;;;;19.65;9.77;;;19.60;99.90;;;;;;4882639;29;20052;-67
2023/10/01 10:56:16;;;;;;;18.08;9.63;;;19.60;99.90;;;;;;4885745;29;20513;-69
2023/10/01 10:59:03;;;;;;;18.42;8.95;;;19.70;99.90;;;;;;4884281;29;20053;-67
2023/10/01 11:01:43;;;;;;;17.77;8.80;;;19.70;99.90;;;;;;4888049;29;20135;-68
2023/10/01 11:04:16;;;;;;;16.98;8.23;;;19.80;99.90;;;;;;4855921;29;20112;-69
2023/10/01 11:07:04;;;;;;;18.27;9.43;;;19.90;99.90;;;;;;4884948;29;20039;-68
2023/10/01 11:09:33;;;;;;;18.80;9.10;;;19.90;99.90;;;;;;4886201;29;20127;-67
2023/10/01 11:12:05;;;;;;;17.33;8.73;;;20.00;99.90;;;;;;4895676;29;20051;-67
2023/10/01 11:14:42;;;;;;;22.40;11.00;;;20.10;99.90;;;;;;4876707;29;20539;-67
2023/10/01 11:17:17;;;;;;;18.90;9.98;;;20.20;99.90;;;;;;4867184;29;20053;-68
2023/10/01 11:19:47;;;;;;;20.02;7.88;;;20.30;99.90;;;;;;4894052;29;20055;-68
2023/10/01 11:22:14;;;;;;;19.45;8.88;;;20.40;99.90;;;;;;4884205;29;20045;-68
2023/10/01 11:24:47;;;;;;;16.35;8.57;;;20.50;99.90;;;;;;4871201;29;20132;-66
2023/10/01 11:30:19;;;;;;;17.83;9.40;;;20.60;99.90;;;;;;4888324;29;20428;-69
2023/10/01 11:33:01;;;;;;;21.38;9.60;;;20.70;99.90;;;;;;4887432;29;20065;-67
2023/10/01 11:35:41;;;;;;;15.95;8.52;;;20.70;99.90;;;;;;4886960;29;20045;-66
2023/10/01 11:38:18;;;;;;;18.92;9.68;;;20.80;99.90;;;;;;4884863;29;20048;-68
2023/10/01 11:43:58;;;;;;;22.40;8.45;;;21.00;99.90;;;;;;4899636;29;20356;-68
2023/10/01 11:46:34;;;;;;;17.33;8.85;;;21.00;99.90;;;;;;4886688;29;20132;-68
2023/10/01 11:49:06;;;;;;;19.40;10.00;;;21.00;99.90;;;;;;4886867;29;20032;-68
2023/10/01 11:52:01;;;;;;;18.48;8.77;;;20.90;99.90;;;;;;4890127;29;20070;-68
2023/10/01 11:54:45;;;;;;;16.30;8.60;;;21.00;99.90;;;;;;4889987;29;20049;-67
2023/10/01 11:57:22;;;;;;;17.20;9.63;;;21.10;99.90;;;;;;4865516;29;20092;-69
2023/10/01 12:00:00;;;;;;;16.83;8.93;;;21.20;99.90;;;;;;4875742;29;20048;-69
2023/10/01 12:02:43;;;;;;;16.80;8.45;;;21.30;99.90;;;;;;4881461;29;20045;-68
2023/10/01 12:05:16;;;;;;;13.95;8.25;;;21.40;99.90;;;;;;4875189;29;20135;-67
2023/10/01 12:07:49;;;;;;;;;;;21.50;99.90;;;;;;4892774;29;20076;-70
2023/10/01 12:10:31;;;;;;;16.63;8.50;;;21.60;99.90;;;;;;4883894;29;19924;-67
2023/10/01 12:13:06;;;;;;;19.80;9.25;;;21.70;99.90;;;;;;4879388;29;20475;-69
2023/10/01 12:15:34;;;;;;;18.17;8.13;;;21.80;99.90;;;;;;4865352;29;20045;-67
2023/10/01 12:18:08;;;;;;;18.60;8.82;;;21.90;99.90;;;;;;4892473;29;20036;-67
2023/10/01 12:20:39;;;;;;;17.23;9.18;;;21.90;99.90;;;;;;4890256;29;20044;-69
2023/10/01 12:23:11;;;;;;;15.75;8.27;;;22.00;99.90;;;;;;4875008;29;20135;-67
2023/10/01 12:25:50;;;;;;;16.98;9.05;;;22.10;99.90;;;;;;4884274;29;20033;-67
2023/10/01 12:28:29;;;;;;;16.20;7.97;;;22.10;99.90;;;;;;4889611;29;20044;-67
2023/10/01 12:30:57;;;;;;;16.48;8.75;;;22.10;99.90;;;;;;4890885;29;20481;-67
2023/10/01 12:33:41;;;;;;;16.77;8.73;;;22.20;99.90;;;;;;4889613;29;20069;-69
2023/10/01 12:41:56;;;;;;;18.83;8.90;;;22.20;99.90;;;;;;4883562;29;20049;-68
2023/10/01 12:44:31;;;;;;;16.73;8.98;;;22.20;99.90;;;;;;4888750;29;20037;-67
2023/10/01 12:47:15;;;;;;;16.98;8.60;;;22.20;99.90;;;;;;4890032;29;20072;-67
2023/10/01 12:49:42;;;;;;;17.02;8.77;;;22.30;99.90;;;;;;4885866;29;20057;-68
2023/10/01 12:52:14;;;;;;;12.57;7.93;;;22.30;99.90;;;;;;4890173;29;20133;-68
2023/10/01 12:54:46;;;;;;;16.50;8.70;;;22.30;99.90;;;;;;4893412;29;20096;-68
2023/10/01 12:57:18;;;;;;;16.77;8.20;;;22.40;99.90;;;;;;4892535;29;20047;-68
2023/10/01 13:00:23;;;;;;;14.85;7.55;;;22.30;99.90;;;;;;4889443;29;20037;-68
2023/10/01 13:02:46;;;;;;;15.85;8.25;;;22.40;99.90;;;;;;4875570;29;20049;-68
2023/10/01 13:05:20;;;;;;;21.05;8.95;;;22.40;99.90;;;;;;4894585;29;20037;-67
2023/10/01 13:07:56;;;;;;;17.17;8.23;;;22.40;99.90;;;;;;4889907;29;20409;-67
2023/10/01 13:10:34;;;;;;;14.75;7.97;;;22.50;99.90;;;;;;4875675;29;20041;-67
2023/10/01 13:13:07;;;;;;;14.57;7.68;;;22.50;99.90;;;;;;4859754;29;20099;-66
2023/10/01 13:15:40;;;;;;;14.55;7.93;;;22.60;99.90;;;;;;4878104;29;20059;-68
2023/10/01 13:18:18;;;;;;;16.17;7.97;;;22.50;99.90;;;;;;4888326;29;20509;-68
2023/10/01 13:23:25;;;;;;;15.02;7.22;;;22.50;99.90;;;;;;4897854;29;20045;-68
2023/10/01 13:26:07;;;;;;;15.70;7.55;;;22.50;99.90;;;;;;4883514;29;20041;-68
2023/10/01 13:28:56;;;;;;;14.80;8.43;;;22.60;99.90;;;;;;4887877;29;20041;-68
2023/10/01 14:10:20;;;;;;;12.68;7.43;;;23.20;99.90;;;;;;4898999;29;20036;-68
2023/10/01 14:13:00;;;;;;;13.27;7.60;;;23.30;99.90;;;;;;4896876;29;20049;-70
2023/10/01 14:15:32;;;;;;;14.02;7.18;;;23.30;99.90;;;;;;4897421;29;20040;-67
2023/10/01 14:18:08;;;;;;;15.68;7.38;;;23.40;99.90;;;;;;4889293;29;20063;-68
2023/10/01 14:23:26;;;;;;;13.77;7.13;;;23.50;99.90;;;;;;4887187;29;20056;-69
2023/10/01 14:25:58;;;;;;;12.65;6.70;;;23.60;99.90;;;;;;4885711;29;20062;-69
2023/10/01 14:28:27;;;;;;;15.45;8.13;;;23.60;99.90;;;;;;4902006;29;20064;-66
2023/10/01 14:31:02;;;;;;;13.15;6.40;;;23.70;99.90;;;;;;4899911;29;20092;-68
2023/10/01 14:33:29;;;;;;;16.52;8.32;;;23.80;99.90;;;;;;4885046;29;20604;-69